createdAt,value
2023-02-02T00:01:01.283Z,19.70
2023-02-02T00:03:27.852Z,19.48
2023-02-02T00:05:54.466Z,19.95
2023-02-02T00:08:21.909Z,20.67
2023-02-02T00:10:50.464Z,22.35
2023-02-02T00:13:17.528Z,21.58
2023-02-02T00:15:44.394Z,20.55
2023-02-02T00:18:11.091Z,21.10
2023-02-02T00:20:37.693Z,22.50
2023-02-02T00:23:04.519Z,19.08
2023-02-02T00:25:31.420Z,20.77
2023-02-02T00:27:58.247Z,23.92
2023-02-02T00:30:24.885Z,20.33
2023-02-02T00:32:53.225Z,24.42
2023-02-02T00:35:20.138Z,20.20
2023-02-02T00:37:46.713Z,20.60
2023-02-02T00:40:13.392Z,18.65
2023-02-02T00:42:39.979Z,19.33
2023-02-02T00:45:16.174Z,20.83
2023-02-02T00:47:48.829Z,22.77
2023-02-02T00:50:19.459Z,21.92
2023-02-02T00:52:47.736Z,22.67
2023-02-02T00:55:15.609Z,21.70
2023-02-02T00:57:44.284Z,21.63
2023-02-02T01:00:13.940Z,18.92
2023-02-02T01:02:40.469Z,19.88
2023-02-02T01:05:07.240Z,21.77
2023-02-02T01:07:33.817Z,21.55
2023-02-02T01:10:00.317Z,22.45
2023-02-02T01:12:26.916Z,19.52
2023-02-02T01:14:53.476Z,21.63
2023-02-02T01:17:20.021Z,23.65
2023-02-02T01:19:46.612Z,21.42
2023-02-02T01:22:13.461Z,22.60
2023-02-02T01:24:40.045Z,23.52
2023-02-02T01:27:06.656Z,23.58
2023-02-02T01:29:33.241Z,22.45
2023-02-02T01:31:59.809Z,20.88
2023-02-02T01:34:26.404Z,19.63
2023-02-02T01:36:52.983Z,18.70
2023-02-02T01:39:19.624Z,25.33
2023-02-02T01:41:46.203Z,21.35
2023-02-02T01:44:50.151Z,23.77
2023-02-02T01:47:17.394Z,18.40
2023-02-02T01:49:44.374Z,22.30
2023-02-02T01:52:13.662Z,21.42
2023-02-02T01:54:50.394Z,22.65
2023-02-02T01:57:45.569Z,21.50
2023-02-02T02:00:14.768Z,22.67
2023-02-02T02:05:11.212Z,18.88
2023-02-02T02:07:40.182Z,20.95
2023-02-02T02:10:07.287Z,20.10
2023-02-02T02:12:33.795Z,20.92
2023-02-02T02:15:18.846Z,20.88
2023-02-02T02:18:16.957Z,20.42
2023-02-02T02:21:12.524Z,22.60
2023-02-02T02:24:06.670Z,22.75
2023-02-02T02:27:03.089Z,23.55
2023-02-02T02:29:57.759Z,24.05
2023-02-02T02:32:49.051Z,22.45
2023-02-02T02:35:27.988Z,24.23
2023-02-02T02:38:02.629Z,24.13
2023-02-02T02:40:38.006Z,22.55
2023-02-02T02:43:20.798Z,20.38
2023-02-02T02:45:47.834Z,22.67
2023-02-02T02:48:14.703Z,23.88
2023-02-02T02:50:41.276Z,23.02
2023-02-02T02:53:22.395Z,21.95
2023-02-02T02:56:18.743Z,21.75
2023-02-02T02:59:07.256Z,22.73
2023-02-02T03:01:40.289Z,22.67
2023-02-02T03:04:44.480Z,25.27
2023-02-02T03:07:36.794Z,23.23
2023-02-02T03:10:06.328Z,25.25
2023-02-02T03:12:33.003Z,20.27
2023-02-02T03:14:59.539Z,24.45
2023-02-02T03:17:28.032Z,22.65
2023-02-02T03:19:54.590Z,24.77
2023-02-02T03:22:21.125Z,24.77
2023-02-02T03:24:47.663Z,27.63
2023-02-02T03:27:14.256Z,28.85
2023-02-02T03:29:40.840Z,24.00
2023-02-02T03:32:07.559Z,30.70
2023-02-02T03:34:34.097Z,28.17
2023-02-02T03:37:00.602Z,28.42
2023-02-02T03:39:27.099Z,28.40
2023-02-02T03:41:53.600Z,26.73
2023-02-02T03:44:20.099Z,25.05
2023-02-02T03:46:46.697Z,27.92
2023-02-02T03:49:13.282Z,24.55
2023-02-02T03:51:39.866Z,27.40
2023-02-02T03:54:06.425Z,28.23
2023-02-02T03:56:33.027Z,22.20
2023-02-02T03:58:59.603Z,26.50
2023-02-02T04:01:29.042Z,27.58
2023-02-02T04:03:56.640Z,27.10
2023-02-02T04:06:24.479Z,23.73
2023-02-02T04:08:51.301Z,23.13
2023-02-02T04:11:18.781Z,26.52
2023-02-02T04:13:45.295Z,26.90
2023-02-02T04:16:12.751Z,23.67
2023-02-02T04:18:39.396Z,22.30
2023-02-02T04:21:07.568Z,23.10
2023-02-02T04:23:34.782Z,24.80
2023-02-02T04:26:01.498Z,26.75
2023-02-02T04:28:28.672Z,19.90
2023-02-02T04:30:56.241Z,25.85
2023-02-02T04:33:24.585Z,28.90
2023-02-02T04:35:51.255Z,26.20
2023-02-02T04:38:17.795Z,25.02
2023-02-02T04:40:46.336Z,24.55
2023-02-02T04:43:13.178Z,27.58
2023-02-02T04:45:39.968Z,24.38
2023-02-02T04:48:06.523Z,28.27
2023-02-02T04:50:33.114Z,26.85
2023-02-02T04:52:59.655Z,23.00
2023-02-02T04:55:26.481Z,25.83
2023-02-02T04:57:53.217Z,28.42
2023-02-02T05:00:19.995Z,25.67
2023-02-02T05:02:46.539Z,24.90
2023-02-02T05:05:14.485Z,29.10
2023-02-02T05:07:41.551Z,22.10
2023-02-02T05:10:09.677Z,26.08
2023-02-02T05:12:36.223Z,29.58
2023-02-02T05:15:05.288Z,24.83
2023-02-02T05:17:32.267Z,28.70
2023-02-02T05:19:58.870Z,25.27
2023-02-02T05:22:28.046Z,24.50
2023-02-02T05:27:21.458Z,22.42
2023-02-02T05:29:48.314Z,25.00
2023-02-02T05:32:15.041Z,25.58
2023-02-02T05:34:41.727Z,26.13
2023-02-02T05:37:08.294Z,27.27
2023-02-02T05:39:34.828Z,27.15
2023-02-02T05:42:01.379Z,27.65
2023-02-02T05:44:27.920Z,24.50
2023-02-02T05:46:54.552Z,24.05
2023-02-02T05:49:21.173Z,29.70
2023-02-02T05:51:50.074Z,25.77
2023-02-02T05:54:20.389Z,23.77
2023-02-02T05:56:48.742Z,24.73
2023-02-02T05:59:15.360Z,23.07
2023-02-02T06:01:41.983Z,25.15
2023-02-02T06:04:08.802Z,24.52
2023-02-02T06:06:35.796Z,26.38
2023-02-02T06:09:02.696Z,25.95
2023-02-02T06:11:29.966Z,27.15
2023-02-02T06:13:56.858Z,26.42
2023-02-02T06:16:23.901Z,22.23
2023-02-02T06:18:51.586Z,23.08
2023-02-02T06:21:20.282Z,22.98
2023-02-02T06:23:46.861Z,24.20
2023-02-02T06:26:14.276Z,20.95
2023-02-02T06:28:41.671Z,20.17
2023-02-02T06:31:10.525Z,20.75
2023-02-02T06:33:37.598Z,21.90
2023-02-02T06:36:06.023Z,18.77
2023-02-02T06:38:32.746Z,20.83
2023-02-02T06:41:00.427Z,18.73
2023-02-02T07:56:27.911Z,29.92
2023-02-02T07:58:56.075Z,31.05
2023-02-02T08:01:23.753Z,32.13
2023-02-02T08:03:50.687Z,31.00
2023-02-02T08:06:20.265Z,33.42
2023-02-02T08:08:48.143Z,32.35
2023-02-02T08:11:16.615Z,31.65
2023-02-02T08:13:43.998Z,30.92
2023-02-02T08:16:12.698Z,31.98
2023-02-02T08:18:40.044Z,29.55
2023-02-02T08:21:11.005Z,28.52
2023-02-02T08:23:38.893Z,25.95
2023-02-02T08:26:12.831Z,26.02
2023-02-02T08:28:42.067Z,26.42
2023-02-02T08:31:12.409Z,28.65
2023-02-02T08:33:39.807Z,26.75
2023-02-02T08:36:12.406Z,27.38
2023-02-02T08:38:39.343Z,27.45
2023-02-02T08:41:11.132Z,28.27
2023-02-02T08:43:37.819Z,28.02
2023-02-02T08:46:06.453Z,28.45
2023-02-02T08:48:34.740Z,27.77
2023-02-02T08:51:01.896Z,28.40
2023-02-02T08:53:31.187Z,29.75
2023-02-02T08:56:15.256Z,29.23
2023-02-02T08:58:55.725Z,27.85
2023-02-02T09:01:25.436Z,28.48
2023-02-02T09:03:56.673Z,28.20
2023-02-02T09:06:29.105Z,29.50
2023-02-02T09:08:55.660Z,28.38
2023-02-02T09:11:22.921Z,28.27
2023-02-02T09:13:53.420Z,26.15
2023-02-02T09:16:22.192Z,27.73
2023-02-02T09:18:48.694Z,24.50
2023-02-02T09:21:17.213Z,26.42
2023-02-02T09:23:45.028Z,27.25
2023-02-02T09:26:14.124Z,29.27
2023-02-02T09:28:42.289Z,27.73
2023-02-02T09:31:10.569Z,26.25
2023-02-02T09:33:37.705Z,26.40
2023-02-02T09:36:10.242Z,26.27
2023-02-02T09:38:38.164Z,26.85
2023-02-02T09:41:25.948Z,28.65
2023-02-02T09:44:25.902Z,26.48
2023-02-02T09:47:30.192Z,27.65
2023-02-02T09:50:03.234Z,27.58
2023-02-02T09:52:42.393Z,27.73
2023-02-02T09:55:27.632Z,28.40
2023-02-02T09:58:21.843Z,26.88
2023-02-02T10:01:07.293Z,29.00
2023-02-02T10:03:42.861Z,29.20
2023-02-02T10:06:18.272Z,29.50
2023-02-02T10:08:51.158Z,29.02
2023-02-02T10:11:24.880Z,32.70
2023-02-02T10:13:54.960Z,30.02
2023-02-02T10:16:24.470Z,30.40
2023-02-02T10:19:04.646Z,32.60
2023-02-02T10:21:46.536Z,32.88
2023-02-02T10:24:25.168Z,34.13
2023-02-02T10:27:04.328Z,27.67
2023-02-02T10:29:40.149Z,29.95
2023-02-02T10:33:22.184Z,28.65
2023-02-02T10:36:07.150Z,31.40
2023-02-02T10:38:45.725Z,27.73
2023-02-02T10:41:28.947Z,28.15
2023-02-02T10:44:38.526Z,28.92
2023-02-02T10:47:09.798Z,30.33
2023-02-02T10:49:41.219Z,29.33
2023-02-02T10:52:11.118Z,29.40
2023-02-02T10:54:56.663Z,29.75
2023-02-02T10:57:48.434Z,28.23
2023-02-02T11:00:25.983Z,28.67
2023-02-02T11:02:53.607Z,29.17
2023-02-02T11:05:43.966Z,29.77
2023-02-02T11:08:20.729Z,28.25
2023-02-02T11:10:52.393Z,30.58
2023-02-02T11:13:27.079Z,29.27
2023-02-02T11:16:16.407Z,33.05
2023-02-02T11:18:44.402Z,34.45
2023-02-02T11:21:32.537Z,34.23
2023-02-02T11:24:02.378Z,35.25
2023-02-02T11:26:47.097Z,34.47
2023-02-02T11:29:28.284Z,37.20
2023-02-02T11:31:55.333Z,37.38
2023-02-02T11:34:24.897Z,33.70
2023-02-02T11:37:12.913Z,37.83
2023-02-02T11:39:43.415Z,32.60
2023-02-02T11:42:24.494Z,32.38
2023-02-02T11:44:56.596Z,31.55
2023-02-02T11:47:30.033Z,30.67
2023-02-02T11:49:59.515Z,28.42
2023-02-02T11:52:32.105Z,28.58
2023-02-02T11:55:02.672Z,26.77
2023-02-02T11:57:30.632Z,27.02
2023-02-02T12:00:12.490Z,28.30
2023-02-02T12:02:46.345Z,27.95
2023-02-02T12:05:21.681Z,25.00
2023-02-02T12:07:49.024Z,27.42
2023-02-02T12:10:40.684Z,27.02
2023-02-02T12:13:45.754Z,27.08
2023-02-02T12:16:28.528Z,26.88
2023-02-02T12:19:28.593Z,23.98
2023-02-02T12:22:12.228Z,24.17
2023-02-02T12:24:48.985Z,25.35
2023-02-02T12:28:06.234Z,24.35
2023-02-02T12:30:44.874Z,24.88
2023-02-02T12:36:21.698Z,19.00
2023-02-02T12:39:01.713Z,18.58
2023-02-02T12:41:31.159Z,18.23
2023-02-02T12:44:25.505Z,19.27
2023-02-02T12:47:19.291Z,17.20
2023-02-02T12:50:07.186Z,18.17
2023-02-02T12:52:52.535Z,17.40
2023-02-02T12:55:42.852Z,17.13
2023-02-02T12:58:18.464Z,14.88
2023-02-02T13:01:20.219Z,14.35
2023-02-02T13:04:01.251Z,13.23
2023-02-02T13:06:40.280Z,12.98
2023-02-02T13:11:49.951Z,11.45
2023-02-02T13:14:37.402Z,10.38
2023-02-02T13:17:15.860Z,9.90
2023-02-02T13:19:46.760Z,10.43
2023-02-02T13:22:38.272Z,9.70
2023-02-02T13:25:09.342Z,10.43
2023-02-02T13:27:39.071Z,7.80
2023-02-02T13:30:20.165Z,8.32
2023-02-02T13:32:49.369Z,8.98
2023-02-02T13:35:21.462Z,8.48
2023-02-02T13:37:50.738Z,7.47
2023-02-02T13:40:34.401Z,6.40
2023-02-02T13:43:22.551Z,7.07
2023-02-02T13:46:29.531Z,5.37
2023-02-02T13:49:10.739Z,5.65
2023-02-02T13:51:53.739Z,5.57
2023-02-02T13:55:05.338Z,6.03
2023-02-02T13:57:52.784Z,5.28
2023-02-02T14:00:28.764Z,5.68
2023-02-02T14:03:04.001Z,5.10
2023-02-02T14:05:34.114Z,5.65
2023-02-02T14:08:07.147Z,4.75
2023-02-02T14:10:37.129Z,5.18
2023-02-02T14:13:35.163Z,6.03
2023-02-02T14:16:07.060Z,6.47
2023-02-02T14:18:54.310Z,5.57
2023-02-02T14:21:32.751Z,6.53
2023-02-02T14:24:03.005Z,7.38
2023-02-02T14:26:46.358Z,7.18
2023-02-02T14:29:29.543Z,7.78
2023-02-02T14:31:59.192Z,7.50
2023-02-02T14:34:34.851Z,7.82
2023-02-02T14:37:04.058Z,8.68
2023-02-02T14:39:30.693Z,8.85
2023-02-02T14:42:51.607Z,8.50
2023-02-02T14:45:35.802Z,8.75
2023-02-02T14:48:17.929Z,8.20
2023-02-02T14:50:57.387Z,7.95
2023-02-02T14:53:37.327Z,7.63
2023-02-02T14:56:16.315Z,9.15
2023-02-02T14:58:52.713Z,8.40
2023-02-02T15:01:28.079Z,8.57
2023-02-02T15:04:00.604Z,9.68
2023-02-02T15:06:34.840Z,9.95
2023-02-02T15:09:20.125Z,9.30
2023-02-02T15:12:00.873Z,10.07
2023-02-02T15:14:48.999Z,10.75
2023-02-02T15:17:34.246Z,9.93
2023-02-02T15:20:14.835Z,8.05
2023-02-02T15:22:48.820Z,10.00
2023-02-02T15:25:34.139Z,10.20
2023-02-02T15:28:19.312Z,9.32
2023-02-02T15:30:51.225Z,10.27
2023-02-02T15:33:28.575Z,9.70
2023-02-02T15:35:59.366Z,8.57
2023-02-02T15:38:34.809Z,10.80
2023-02-02T15:41:18.679Z,11.32
2023-02-02T15:43:45.619Z,9.18
2023-02-02T15:46:23.828Z,9.93
2023-02-02T15:49:34.339Z,9.90
2023-02-02T15:52:11.389Z,8.55
2023-02-02T15:54:38.256Z,8.05
2023-02-02T15:57:23.755Z,9.48
2023-02-02T15:59:50.537Z,11.13
2023-02-02T16:02:27.768Z,10.52
2023-02-02T16:04:54.342Z,9.50
2023-02-02T16:07:30.940Z,9.82
2023-02-02T16:10:04.078Z,11.45
2023-02-02T16:12:31.093Z,9.02
2023-02-02T16:14:57.999Z,10.10
2023-02-02T16:17:30.218Z,12.02
2023-02-02T16:20:08.660Z,9.43
2023-02-02T16:22:37.353Z,10.63
2023-02-02T16:25:09.677Z,12.27
2023-02-02T16:27:37.706Z,11.52
2023-02-02T16:30:07.784Z,12.97
2023-02-02T16:32:38.754Z,11.05
2023-02-02T16:35:23.711Z,13.30
2023-02-02T16:37:50.536Z,14.32
2023-02-02T16:40:28.390Z,14.63
2023-02-02T16:43:13.753Z,11.65
2023-02-02T16:45:52.753Z,12.98
2023-02-02T16:48:29.800Z,12.98
2023-02-02T16:51:17.955Z,12.15
2023-02-02T16:53:48.356Z,13.60
2023-02-02T16:56:54.442Z,13.13
2023-02-02T16:59:33.485Z,14.63
2023-02-02T17:02:20.987Z,12.18
2023-02-02T17:04:52.160Z,13.27
2023-02-02T17:07:21.270Z,11.02
2023-02-02T17:09:48.959Z,16.58
2023-02-02T17:12:30.733Z,16.23
2023-02-02T17:15:05.611Z,20.77
2023-02-02T17:17:32.168Z,21.75
2023-02-02T17:19:58.990Z,16.73
2023-02-02T17:22:27.693Z,22.00
2023-02-02T17:24:54.279Z,24.05
2023-02-02T17:27:34.120Z,29.60
2023-02-02T17:30:02.551Z,19.98
2023-02-02T17:32:29.103Z,14.88
2023-02-02T17:34:55.879Z,16.67
2023-02-02T17:37:22.451Z,18.17
2023-02-02T17:39:50.715Z,16.85
2023-02-02T17:42:25.197Z,15.98
2023-02-02T17:44:52.191Z,14.05
2023-02-02T17:47:18.779Z,15.38
2023-02-02T17:49:45.342Z,14.35
2023-02-02T17:52:12.836Z,16.20
2023-02-02T17:54:39.413Z,18.02
2023-02-02T17:57:06.106Z,13.38
2023-02-02T17:59:32.626Z,12.38
2023-02-02T18:01:59.597Z,13.93
2023-02-02T18:04:26.927Z,11.98
2023-02-02T18:06:53.540Z,12.18
2023-02-02T18:09:20.159Z,13.40
2023-02-02T18:11:49.352Z,11.93
2023-02-02T18:14:15.940Z,12.05
2023-02-02T18:16:42.504Z,12.05
2023-02-02T18:19:09.305Z,14.73
2023-02-02T18:21:35.984Z,13.95
2023-02-02T18:24:02.581Z,14.23
2023-02-02T18:26:31.313Z,14.65
2023-02-02T18:28:59.213Z,13.30
2023-02-02T18:31:27.042Z,14.07
2023-02-02T18:33:54.484Z,12.38
2023-02-02T18:36:23.437Z,16.13
2023-02-02T18:38:51.387Z,15.40
2023-02-02T18:41:19.344Z,13.45
2023-02-02T18:43:45.934Z,13.82
2023-02-02T18:46:18.044Z,13.57
2023-02-02T18:48:44.635Z,10.77
2023-02-02T18:51:16.574Z,9.63
2023-02-02T18:53:43.763Z,10.48
2023-02-02T18:56:12.908Z,11.07
2023-02-02T19:01:11.333Z,9.27
2023-02-02T19:03:39.275Z,16.58
2023-02-02T19:06:26.278Z,16.45
2023-02-02T19:08:52.939Z,13.60
2023-02-02T19:11:29.008Z,11.35
2023-02-02T19:13:56.220Z,12.30
2023-02-02T19:16:25.000Z,13.50
2023-02-02T19:18:51.946Z,14.55
2023-02-02T19:21:18.497Z,15.63
2023-02-02T19:23:46.090Z,12.32
2023-02-02T19:26:22.924Z,15.45
2023-02-02T19:28:49.565Z,12.13
2023-02-02T19:31:16.842Z,13.45
2023-02-02T19:33:47.788Z,16.25
2023-02-02T19:36:19.166Z,16.70
2023-02-02T19:38:51.852Z,13.60
2023-02-02T19:41:21.119Z,12.18
2023-02-02T19:43:50.185Z,13.00
2023-02-02T19:46:22.237Z,10.65
2023-02-02T19:48:52.238Z,12.68
2023-02-02T19:51:42.032Z,12.00
2023-02-02T19:54:29.300Z,12.43
2023-02-02T19:56:58.589Z,18.15
2023-02-02T19:59:30.803Z,18.55
2023-02-02T20:01:58.558Z,16.42
2023-02-02T20:04:25.627Z,18.77
2023-02-02T20:06:59.717Z,19.73
2023-02-02T20:09:33.492Z,19.25
2023-02-02T20:12:00.688Z,19.60
2023-02-02T20:14:32.733Z,18.95
2023-02-02T20:17:07.350Z,19.02
2023-02-02T20:19:41.014Z,16.48
2023-02-02T20:22:28.561Z,24.17
2023-02-02T20:24:57.285Z,22.45
2023-02-02T20:27:26.790Z,19.73
2023-02-02T20:29:56.808Z,15.63
2023-02-02T20:32:26.706Z,16.92
2023-02-02T20:34:55.831Z,14.38
2023-02-02T20:40:00.159Z,12.90
2023-02-02T20:42:28.863Z,10.80
2023-02-02T20:44:56.456Z,11.00
2023-02-02T20:47:23.248Z,11.45
2023-02-02T20:49:49.960Z,11.73
2023-02-02T20:52:23.953Z,9.63
2023-02-02T20:54:52.311Z,8.55
2023-02-02T20:57:19.291Z,10.90
2023-02-02T20:59:45.822Z,9.52
2023-02-02T21:02:22.726Z,10.52
2023-02-02T21:04:51.116Z,9.30
2023-02-02T21:07:20.759Z,12.93
2023-02-02T21:09:49.579Z,11.48
2023-02-02T21:12:16.601Z,10.85
2023-02-02T21:14:45.141Z,11.57
2023-02-02T21:17:16.147Z,11.82
2023-02-02T21:19:43.835Z,11.50
2023-02-02T21:22:10.844Z,12.57
2023-02-02T21:24:37.533Z,12.25
2023-02-02T21:27:04.702Z,12.48
2023-02-02T21:29:32.723Z,14.63
2023-02-02T21:32:02.525Z,14.02
2023-02-02T21:34:29.893Z,11.82
2023-02-02T21:36:58.275Z,12.13
2023-02-02T21:39:29.340Z,12.90
2023-02-02T21:42:20.381Z,13.93
2023-02-02T21:45:25.150Z,13.48
2023-02-02T21:47:55.162Z,12.52
2023-02-02T21:50:28.958Z,12.68
2023-02-02T21:53:14.458Z,13.00
2023-02-02T21:55:41.078Z,12.48
2023-02-02T21:58:35.350Z,13.25
2023-02-02T22:01:24.487Z,15.15
2023-02-02T22:03:51.112Z,13.02
2023-02-02T22:06:28.114Z,12.82
2023-02-02T22:09:12.911Z,17.65
2023-02-02T22:12:01.465Z,14.15
2023-02-02T22:15:01.696Z,11.63
2023-02-02T22:17:39.919Z,12.85
2023-02-02T22:20:37.167Z,14.10
2023-02-02T22:23:04.014Z,12.32
2023-02-02T22:25:36.813Z,13.20
2023-02-02T22:28:23.734Z,15.73
2023-02-02T22:30:52.232Z,14.68
2023-02-02T22:33:18.981Z,16.38
2023-02-02T22:35:46.501Z,14.23
2023-02-02T22:38:19.272Z,13.40
2023-02-02T22:40:46.900Z,12.23
2023-02-02T22:43:16.213Z,12.20
2023-02-02T22:45:43.491Z,15.05
2023-02-02T22:48:10.474Z,13.23
2023-02-02T22:50:37.079Z,12.73
2023-02-02T22:53:04.466Z,13.23
2023-02-02T22:55:32.024Z,12.25
2023-02-02T22:57:58.586Z,12.95
2023-02-02T23:00:28.346Z,11.55
2023-02-02T23:02:55.926Z,12.07
2023-02-02T23:05:23.914Z,14.00
2023-02-02T23:07:51.166Z,13.35
2023-02-02T23:10:22.500Z,12.80
2023-02-02T23:12:50.671Z,12.82
2023-02-02T23:15:19.165Z,13.77
2023-02-02T23:17:45.731Z,11.50
2023-02-02T23:20:14.111Z,12.88
2023-02-02T23:22:40.752Z,15.20
2023-02-02T23:25:07.480Z,13.05
2023-02-02T23:27:34.099Z,14.07
2023-02-02T23:30:00.619Z,14.02
2023-02-02T23:32:27.218Z,14.68
2023-02-02T23:34:53.711Z,12.75
2023-02-02T23:37:20.241Z,15.00
2023-02-02T23:39:46.784Z,13.73
2023-02-02T23:42:13.443Z,14.23
2023-02-02T23:44:40.126Z,16.35
2023-02-02T23:47:07.066Z,15.63
2023-02-02T23:49:34.683Z,17.20
2023-02-02T23:52:01.324Z,19.90
2023-02-02T23:54:29.575Z,17.35
2023-02-02T23:56:57.244Z,15.45
2023-02-02T23:59:23.820Z,19.27
